Time,TemperatureF,DewpointF,PressureIn,WindDirection,WindDirectionDegrees,WindSpeedMPH,WindSpeedGustMPH,Humidity,HourlyPrecipIn,Conditions,Clouds,dailyrainin,SoftwareType,DateUTC
2013-03-15 00:05:00,47.1,44.0,30.20,NNW,340,2.0,5.0,87,0.00,,,0.00,weatherlink.com 1.10,2013-03-15 07:05:00,
2013-03-15 00:20:00,48.2,44.0,30.20,NNW,329,2.0,6.0,84,0.00,,,0.00,weatherlink.com 1.10,2013-03-15 07:20:00,
2013-03-15 00:35:00,47.4,43.0,30.21,NNW,342,3.0,3.0,86,0.00,,,0.00,weatherlink.com 1.10,2013-03-15 07:35:00,
2013-03-15 00:50:00,48.0,44.0,30.21,NNW,332,3.0,7.0,85,0.00,,,0.00,weatherlink.com 1.10,2013-03-15 07:50:00,
2013-03-15 01:05:00,48.8,44.0,30.21,NNW,336,2.0,5.0,83,0.00,,,0.00,weatherlink.com 1.10,2013-03-15 08:05:00,
2013-03-15 01:20:00,47.9,44.0,30.21,NNW,336,0.0,4.0,86,0.00,,,0.00,weatherlink.com 1.10,2013-03-15 08:20:00,
2013-03-15 01:35:00,46.1,42.0,30.20,NNE,13,3.0,5.0,86,0.00,,,0.00,weatherlink.com 1.10,2013-03-15 08:35:00,
2013-03-15 01:50:00,46.1,43.0,30.20,NNE,13,0.0,5.0,87,0.00,,,0.00,weatherlink.com 1.10,2013-03-15 08:50:00,
2013-03-15 02:05:00,45.5,42.0,30.20,NNE,13,3.0,4.0,87,0.00,,,0.00,weatherlink.com 1.10,2013-03-15 09:05:00,
2013-03-15 02:21:00,46.5,44.0,30.21,North,360,2.0,7.0,90,0.00,,,0.00,weatherlink.com 1.10,2013-03-15 09:21:00,
2013-03-15 02:36:00,47.0,44.0,30.22,North,5,1.0,5.0,89,0.00,,,0.00,weatherlink.com 1.10,2013-03-15 09:36:00,
2013-03-15 02:51:00,46.4,43.0,30.21,North,5,2.0,4.0,89,0.00,,,0.00,weatherlink.com 1.10,2013-03-15 09:51:00,
2013-03-15 03:06:00,46.1,43.0,30.20,North,5,0.0,4.0,90,0.00,,,0.00,weatherlink.com 1.10,2013-03-15 10:06:00,
2013-03-15 03:21:00,45.9,43.0,30.19,North,5,0.0,3.0,90,0.00,,,0.00,weatherlink.com 1.10,2013-03-15 10:21:00,
2013-03-15 03:36:00,45.5,43.0,30.20,North,5,4.0,4.0,91,0.00,,,0.00,weatherlink.com 1.10,2013-03-15 10:36:00,
2013-03-15 03:51:00,46.0,44.0,30.19,NE,34,4.0,6.0,91,0.00,,,0.00,weatherlink.com 1.10,2013-03-15 10:51:00,
2013-03-15 04:06:00,45.9,44.0,30.18,NE,34,0.0,3.0,92,0.00,,,0.00,weatherlink.com 1.10,2013-03-15 11:06:00,
2013-03-15 05:06:00,45.2,43.0,30.17,NE,34,0.0,1.0,92,0.00,,,0.00,weatherlink.com 1.10,2013-03-15 12:06:00,
2013-03-15 05:36:00,45.3,43.0,30.17,NE,34,0.0,2.0,93,0.00,,,0.00,weatherlink.com 1.10,2013-03-15 12:36:00,
2013-03-15 06:06:00,45.4,44.0,30.16,NE,34,0.0,2.0,93,0.00,,,0.00,weatherlink.com 1.10,2013-03-15 13:06:00,
2013-03-15 06:21:00,45.2,43.0,30.17,NE,34,1.0,2.0,93,0.00,,,0.00,weatherlink.com 1.10,2013-03-15 13:21:00,
2013-03-15 06:36:00,45.8,44.0,30.17,NE,34,0.0,2.0,94,0.00,,,0.00,weatherlink.com 1.10,2013-03-15 13:36:00,
2013-03-15 06:51:00,45.9,44.0,30.17,NE,41,0.0,2.0,94,0.00,,,0.00,weatherlink.com 1.10,2013-03-15 13:51:00,
2013-03-15 07:06:00,45.9,44.0,30.18,NNE,17,1.0,4.0,94,0.00,,,0.00,weatherlink.com 1.10,2013-03-15 14:06:00,
2013-03-15 07:21:00,46.2,45.0,30.17,ENE,59,2.0,4.0,94,0.00,,,0.00,weatherlink.com 1.10,2013-03-15 14:21:00,
2013-03-15 07:36:00,46.1,44.0,30.17,ENE,57,2.0,3.0,93,0.00,,,0.00,weatherlink.com 1.10,2013-03-15 14:36:00,
2013-03-15 07:51:00,46.0,44.0,30.17,ENE,57,1.0,3.0,93,0.00,,,0.00,weatherlink.com 1.10,2013-03-15 14:51:00,
2013-03-15 08:06:00,46.5,45.0,30.17,ENE,57,0.0,3.0,94,0.00,,,0.00,weatherlink.com 1.10,2013-03-15 15:06:00,
2013-03-15 08:21:00,47.0,45.0,30.17,ENE,57,1.0,3.0,94,0.00,,,0.00,weatherlink.com 1.10,2013-03-15 15:21:00,
2013-03-15 08:36:00,48.1,47.0,30.17,ENE,57,0.0,1.0,94,0.00,,,0.00,weatherlink.com 1.10,2013-03-15 15:36:00,
2013-03-15 08:51:00,48.8,47.0,30.18,ENE,57,0.0,2.0,94,0.00,,,0.00,weatherlink.com 1.10,2013-03-15 15:51:00,
2013-03-15 09:21:00,51.4,50.0,30.18,ENE,58,0.0,2.0,93,0.00,,,0.00,weatherlink.com 1.10,2013-03-15 16:21:00,
2013-03-15 09:36:00,52.5,51.0,30.19,NNE,13,2.0,4.0,93,0.00,,,0.00,weatherlink.com 1.10,2013-03-15 16:36:00,
2013-03-15 09:52:00,53.8,52.0,30.19,SW,219,0.0,1.0,92,0.00,,,0.00,weatherlink.com 1.10,2013-03-15 16:52:00,
2013-03-15 10:07:00,55.0,52.0,30.18,NW,311,0.0,1.0,88,0.00,,,0.00,weatherlink.com 1.10,2013-03-15 17:07:00,
2013-03-15 10:22:00,56.9,53.0,30.19,NW,311,0.0,1.0,85,0.00,,,0.00,weatherlink.com 1.10,2013-03-15 17:22:00,
2013-03-15 10:37:00,56.9,51.0,30.19,NW,317,4.0,6.0,81,0.00,,,0.00,weatherlink.com 1.10,2013-03-15 17:37:00,
2013-03-15 10:52:00,57.8,52.0,30.19,NW,313,0.0,3.0,81,0.00,,,0.00,weatherlink.com 1.10,2013-03-15 17:52:00,
2013-03-15 11:07:00,59.3,53.0,30.18,NW,318,1.0,6.0,79,0.00,,,0.00,weatherlink.com 1.10,2013-03-15 18:07:00,
2013-03-15 11:22:00,59.9,53.0,30.18,NW,320,4.0,8.0,78,0.00,,,0.00,weatherlink.com 1.10,2013-03-15 18:22:00,
2013-03-15 11:37:00,60.2,53.0,30.18,North,355,5.0,6.0,78,0.00,,,0.00,weatherlink.com 1.10,2013-03-15 18:37:00,
2013-03-15 11:52:00,60.5,53.0,30.17,NNW,327,6.0,9.0,76,0.00,,,0.00,weatherlink.com 1.10,2013-03-15 18:52:00,
2013-03-15 12:07:00,60.4,53.0,30.16,WNW,293,4.0,8.0,76,0.00,,,0.00,weatherlink.com 1.10,2013-03-15 19:07:00,
2013-03-15 12:37:00,61.3,54.0,30.17,NNW,347,11.0,12.0,76,0.00,,,0.00,weatherlink.com 1.10,2013-03-15 19:37:00,
2013-03-15 12:52:00,60.9,54.0,30.16,WNW,303,4.0,10.0,77,0.00,,,0.00,weatherlink.com 1.10,2013-03-15 19:52:00,
2013-03-15 13:07:00,61.6,54.0,30.16,NNW,329,3.0,9.0,76,0.00,,,0.00,weatherlink.com 1.10,2013-03-15 20:07:00,
2013-03-15 13:23:00,60.7,53.0,30.16,NNW,332,10.0,14.0,77,0.00,,,0.00,weatherlink.com 1.10,2013-03-15 20:23:00,
2013-03-15 13:38:00,58.7,53.0,30.17,NW,320,6.0,15.0,80,0.00,,,0.00,weatherlink.com 1.10,2013-03-15 20:38:00,
2013-03-15 13:53:00,57.6,52.0,30.18,WNW,297,5.0,20.0,81,0.00,,,0.00,weatherlink.com 1.10,2013-03-15 20:53:00,
2013-03-15 14:08:00,57.0,52.0,30.18,WNW,300,5.0,19.0,83,0.00,,,0.00,weatherlink.com 1.10,2013-03-15 21:08:00,
2013-03-15 14:23:00,56.0,51.0,30.18,WNW,296,7.0,20.0,84,0.00,,,0.00,weatherlink.com 1.10,2013-03-15 21:23:00,
2013-03-15 14:38:00,55.9,51.0,30.18,NNW,343,15.0,17.0,84,0.00,,,0.00,weatherlink.com 1.10,2013-03-15 21:38:00,
2013-03-15 14:53:00,56.3,52.0,30.18,NW,306,11.0,19.0,84,0.00,,,0.00,weatherlink.com 1.10,2013-03-15 21:53:00,
2013-03-15 15:08:00,56.0,51.0,30.18,NW,315,7.0,17.0,84,0.00,,,0.00,weatherlink.com 1.10,2013-03-15 22:08:00,
2013-03-15 15:23:00,55.3,51.0,30.17,WNW,296,7.0,18.0,86,0.00,,,0.00,weatherlink.com 1.10,2013-03-15 22:23:00,
2013-03-15 15:38:00,55.4,51.0,30.17,NW,318,5.0,14.0,86,0.00,,,0.00,weatherlink.com 1.10,2013-03-15 22:38:00,
2013-03-15 15:53:00,57.8,52.0,30.16,NNW,329,6.0,9.0,82,0.00,,,0.00,weatherlink.com 1.10,2013-03-15 22:53:00,
2013-03-15 16:08:00,59.2,52.0,30.16,NW,313,7.0,12.0,78,0.00,,,0.00,weatherlink.com 1.10,2013-03-15 23:08:00,
2013-03-15 16:23:00,58.3,52.0,30.16,NNW,343,9.0,12.0,79,0.00,,,0.00,weatherlink.com 1.10,2013-03-15 23:23:00,
2013-03-15 16:39:00,58.6,52.0,30.16,NW,312,5.0,10.0,78,0.00,,,0.00,weatherlink.com 1.10,2013-03-15 23:39:00,
2013-03-15 16:54:00,57.0,51.0,30.16,NW,325,5.0,12.0,80,0.00,,,0.00,weatherlink.com 1.10,2013-03-15 23:54:00,
2013-03-15 17:09:00,54.2,51.0,30.16,NW,317,8.0,17.0,87,0.00,,,0.00,weatherlink.com 1.10,2013-03-16 00:09:00,
2013-03-15 17:24:00,53.9,51.0,30.16,North,360,9.0,13.0,88,0.00,,,0.00,weatherlink.com 1.10,2013-03-16 00:24:00,
2013-03-15 17:39:00,55.0,51.0,30.15,NNW,331,5.0,10.0,87,0.00,,,0.00,weatherlink.com 1.10,2013-03-16 00:39:00,
2013-03-15 17:54:00,54.5,51.0,30.15,NNW,338,6.0,12.0,87,0.00,,,0.00,weatherlink.com 1.10,2013-03-16 00:54:00,
2013-03-15 18:09:00,54.5,51.0,30.14,NW,308,0.0,8.0,88,0.00,,,0.00,weatherlink.com 1.10,2013-03-16 01:09:00,
2013-03-15 18:24:00,57.0,52.0,30.12,NNW,329,3.0,10.0,82,0.00,,,0.00,weatherlink.com 1.10,2013-03-16 01:24:00,
2013-03-15 18:39:00,58.3,52.0,30.11,NW,316,3.0,4.0,79,0.00,,,0.00,weatherlink.com 1.10,2013-03-16 01:39:00,
2013-03-15 18:54:00,58.1,52.0,30.12,NW,321,0.0,1.0,79,0.00,,,0.00,weatherlink.com 1.10,2013-03-16 01:54:00,
2013-03-15 19:09:00,56.2,51.0,30.11,NW,321,2.0,4.0,82,0.00,,,0.00,weatherlink.com 1.10,2013-03-16 02:09:00,
2013-03-15 19:24:00,54.4,51.0,30.12,NW,321,0.0,3.0,87,0.00,,,0.00,weatherlink.com 1.10,2013-03-16 02:24:00,
2013-03-15 19:39:00,52.6,50.0,30.12,NNW,332,0.0,7.0,90,0.00,,,0.00,weatherlink.com 1.10,2013-03-16 02:39:00,
2013-03-15 19:54:00,51.7,49.0,30.12,NNW,332,1.0,2.0,91,0.00,,,0.00,weatherlink.com 1.10,2013-03-16 02:54:00,
2013-03-15 20:10:00,50.7,49.0,30.13,NNW,348,0.0,5.0,93,0.00,,,0.00,weatherlink.com 1.10,2013-03-16 03:10:00,
2013-03-15 20:25:00,49.9,48.0,30.14,NNW,329,0.0,4.0,94,0.00,,,0.00,weatherlink.com 1.10,2013-03-16 03:25:00,
2013-03-15 20:40:00,49.9,49.0,30.14,NNW,337,1.0,7.0,96,0.00,,,0.00,weatherlink.com 1.10,2013-03-16 03:40:00,
2013-03-15 20:55:00,49.2,48.0,30.14,NNW,337,0.0,1.0,96,0.00,,,0.00,weatherlink.com 1.10,2013-03-16 03:55:00,
2013-03-15 21:10:00,49.1,48.0,30.14,NNW,333,3.0,6.0,97,0.00,,,0.00,weatherlink.com 1.10,2013-03-16 04:10:00,
2013-03-15 21:25:00,48.8,49.0,30.15,NNW,347,2.0,5.0,99,0.00,,,0.00,weatherlink.com 1.10,2013-03-16 04:25:00,
2013-03-15 21:40:00,48.2,48.0,30.15,NNW,342,1.0,1.0,100,0.00,,,0.00,weatherlink.com 1.10,2013-03-16 04:40:00,
2013-03-15 21:55:00,47.3,47.0,30.15,NNW,342,0.0,1.0,100,0.00,,,0.00,weatherlink.com 1.10,2013-03-16 04:55:00,
2013-03-15 22:10:00,46.5,47.0,30.16,NNW,342,0.0,2.0,100,0.00,,,0.00,weatherlink.com 1.10,2013-03-16 05:10:00,
2013-03-15 22:25:00,46.8,47.0,30.16,NNW,342,0.0,3.0,100,0.00,,,0.00,weatherlink.com 1.10,2013-03-16 05:25:00,
2013-03-15 22:40:00,46.2,46.0,30.16,NNW,342,0.0,3.0,100,0.00,,,0.00,weatherlink.com 1.10,2013-03-16 05:40:00,
2013-03-15 22:55:00,47.0,47.0,30.16,NNW,342,0.0,2.0,100,0.00,,,0.00,weatherlink.com 1.10,2013-03-16 05:55:00,
2013-03-15 23:10:00,48.5,49.0,30.15,NNW,338,1.0,3.0,100,0.00,,,0.00,weatherlink.com 1.10,2013-03-16 06:10:00,
2013-03-15 23:26:00,48.5,49.0,30.15,NNW,337,0.0,2.0,100,0.00,,,0.00,weatherlink.com 1.10,2013-03-16 06:26:00,
2013-03-15 23:41:00,47.9,48.0,30.15,NNW,337,0.0,1.0,100,0.00,,,0.00,weatherlink.com 1.10,2013-03-16 06:41:00,
2013-03-15 23:55:00,47.3,47.0,30.14,NNW,338,0.0,1.0,100,0.00,,,0.00,weatherlink.com 1.10,2013-03-16 06:55:00,